Time;durP1;ratioP1;P1;durP2;ratioP2;P2;SDS_P1;SDS_P2;PMS_P1;PMS_P2;Temp;Humidity;BMP_temperature;BMP_pressure;BME280_temperature;BME280_humidity;BME280_pressure;Samples;Min_cycle;Max_cycle;Signal;HPM_P1;HPM_P2
2022/09/25 00:00:18;;;;;;;;;;;14.70;90.70;;;;;;5048897;28;19913;-70
2022/09/25 00:02:43;;;;;;;;;;;14.70;91.00;;;;;;5048934;28;19913;-70
2022/09/25 00:05:09;;;;;;;;;;;14.70;90.70;;;;;;5048591;28;19916;-70
2022/09/25 00:07:34;;;;;;;;;;;14.70;90.70;;;;;;5048601;28;19912;-70
2022/09/25 00:10:00;;;;;;;;;;;14.70;90.70;;;;;;5048189;28;20434;-70
2022/09/25 00:12:25;;;;;;;;;;;14.70;90.70;;;;;;5048249;28;19923;-70
2022/09/25 00:14:51;;;;;;;;;;;14.70;90.70;;;;;;5048492;28;20300;-70
2022/09/25 00:17:17;;;;;;;;;;;14.70;90.70;;;;;;5048597;28;20012;-70
2022/09/25 00:19:51;;;;;;;;;;;14.70;90.70;;;;;;5048837;28;19913;-71
2022/09/25 00:22:17;;;;;;;;;;;14.70;90.70;;;;;;5048381;28;19913;-70
2022/09/25 00:24:43;;;;;;;;;;;14.70;90.80;;;;;;5047841;28;19935;-70
2022/09/25 00:27:08;;;;;;;;;;;14.70;90.70;;;;;;5047859;28;19994;-70
2022/09/25 00:29:37;;;;;;;;;;;14.70;90.70;;;;;;5048562;28;20684;-70
2022/09/25 00:32:05;;;;;;;;;;;14.70;90.80;;;;;;5048077;28;19913;-71
2022/09/25 00:34:31;;;;;;;;;;;14.70;90.70;;;;;;5048494;28;19948;-70
2022/09/25 00:36:56;;;;;;;;;;;14.70;90.70;;;;;;5048209;28;20647;-70
2022/09/25 00:39:22;;;;;;;;;;;14.70;90.80;;;;;;5048304;28;19923;-70
2022/09/25 00:41:47;;;;;;;;;;;14.60;90.70;;;;;;5029754;28;19967;-70
2022/09/25 00:44:31;;;;;;;;;;;14.70;90.70;;;;;;5047240;28;19919;-70
2022/09/25 00:46:57;;;;;;;;;;;14.70;90.80;;;;;;5048024;28;19956;-70
2022/09/25 00:49:24;;;;;;;;;;;14.60;90.80;;;;;;5047779;28;19920;-70
2022/09/25 00:51:55;;;;;;;;;;;14.60;90.80;;;;;;5047508;28;19912;-70
2022/09/25 00:54:24;;;;;;;;;;;14.60;90.70;;;;;;5047594;28;19997;-70
2022/09/25 00:56:50;;;;;;;;;;;14.60;90.80;;;;;;5047451;28;19913;-70
2022/09/25 00:59:17;;;;;;;;;;;14.60;90.80;;;;;;5047587;28;19962;-70
2022/09/25 01:01:43;;;;;;;;;;;14.60;90.80;;;;;;5047172;28;19927;-70
2022/09/25 01:04:11;;;;;;;;;;;14.60;90.70;;;;;;5047931;28;19913;-70
2022/09/25 01:06:37;;;;;;;;;;;14.60;90.80;;;;;;5047552;28;20034;-70
2022/09/25 01:09:03;;;;;;;;;;;14.60;90.80;;;;;;5047681;28;19962;-70
2022/09/25 01:11:29;;;;;;;;;;;14.60;90.70;;;;;;5029417;28;19909;-70
2022/09/25 01:13:57;;;;;;;;;;;14.60;90.80;;;;;;5047416;28;19909;-70
2022/09/25 01:16:41;;;;;;;;;;;14.60;90.80;;;;;;5046254;28;19916;-70
2022/09/25 01:19:22;;;;;;;;;;;14.60;90.80;;;;;;5044977;28;19920;-70
2022/09/25 01:22:02;;;;;;;;;;;14.60;90.80;;;;;;5046983;28;20036;-70
2022/09/25 01:24:31;;;;;;;;;;;14.60;90.80;;;;;;5047676;28;20003;-70
2022/09/25 01:27:08;;;;;;;;;;;14.60;90.90;;;;;;5046841;28;19917;-70
2022/09/25 01:29:55;;;;;;;;;;;14.60;90.80;;;;;;5046401;28;20377;-70
2022/09/25 01:32:37;;;;;;;;;;;14.60;90.80;;;;;;5046854;28;19913;-70
2022/09/25 01:35:09;;;;;;;;;;;14.50;90.80;;;;;;5046982;28;19991;-70
2022/09/25 01:37:48;;;;;;;;;;;14.50;90.80;;;;;;5040018;28;19966;-71
2022/09/25 01:40:13;;;;;;;;;;;14.50;90.90;;;;;;5045992;28;20563;-70
2022/09/25 01:42:45;;;;;;;;;;;14.50;90.90;;;;;;5046380;28;19925;-70
2022/09/25 01:45:15;;;;;;;;;;;14.50;90.80;;;;;;5046939;28;20380;-70
2022/09/25 01:47:43;;;;;;;;;;;14.50;90.90;;;;;;5046657;28;20444;-70
2022/09/25 01:50:12;;;;;;;;;;;14.50;90.90;;;;;;5046628;28;19966;-70
2022/09/25 01:52:43;;;;;;;;;;;14.50;90.90;;;;;;5046247;28;20399;-70
2022/09/25 01:55:12;;;;;;;;;;;14.50;90.90;;;;;;5045890;28;19943;-70
2022/09/25 01:57:40;;;;;;;;;;;14.50;91.00;;;;;;5045375;28;19916;-70
2022/09/25 02:00:08;;;;;;;;;;;14.50;90.90;;;;;;5046609;28;19912;-70
2022/09/25 02:02:36;;;;;;;;;;;14.50;91.00;;;;;;5046250;28;19955;-70
2022/09/25 02:05:11;;;;;;;;;;;14.50;90.90;;;;;;5046098;28;19916;-70
2022/09/25 02:07:41;;;;;;;;;;;14.40;90.90;;;;;;5046842;28;19916;-70
2022/09/25 02:10:13;;;;;;;;;;;14.40;90.90;;;;;;5046225;28;20008;-70
2022/09/25 02:12:45;;;;;;;;;;;14.50;90.90;;;;;;5045835;28;19915;-70
2022/09/25 02:15:18;;;;;;;;;;;14.50;91.00;;;;;;5046012;28;19917;-70
2022/09/25 02:20:35;;;;;;;;;;;14.50;91.00;;;;;;5045871;28;19920;-70
2022/09/25 02:23:16;;;;;;;;;;;14.40;91.00;;;;;;5046009;28;19990;-70
2022/09/25 02:25:43;;;;;;;;;;;14.40;91.00;;;;;;5044644;28;19917;-70
2022/09/25 02:28:09;;;;;;;;;;;14.40;91.10;;;;;;5046168;28;19909;-70
2022/09/25 02:30:34;;;;;;;;;;;14.40;91.10;;;;;;5046542;28;19939;-70
2022/09/25 02:33:00;;;;;;;;;;;14.40;91.00;;;;;;5045696;28;20268;-70
2022/09/25 02:35:25;;;;;;;;;;;14.40;91.10;;;;;;5045632;28;19983;-70
2022/09/25 02:37:52;;;;;;;;;;;14.40;91.10;;;;;;5045441;28;20367;-70
2022/09/25 02:40:18;;;;;;;;;;;14.40;91.10;;;;;;5045742;28;20078;-70
2022/09/25 02:42:48;;;;;;;;;;;14.40;91.10;;;;;;5045601;28;19959;-70
2022/09/25 02:45:31;;;;;;;;;;;14.40;91.10;;;;;;5045892;28;20501;-70
2022/09/25 02:47:57;;;;;;;;;;;14.40;91.10;;;;;;5043847;28;19924;-70
2022/09/25 02:50:25;;;;;;;;;;;14.40;91.10;;;;;;5045470;28;19920;-70
2022/09/25 02:53:00;;;;;;;;;;;14.40;91.20;;;;;;5045364;28;19951;-70
2022/09/25 02:55:28;;;;;;;;;;;14.40;91.10;;;;;;5045448;28;19912;-70
2022/09/25 02:58:14;;;;;;;;;;;14.40;91.10;;;;;;5045680;28;19912;-70
2022/09/25 03:00:40;;;;;;;;;;;14.30;91.10;;;;;;5026746;28;19923;-70
2022/09/25 03:03:08;;;;;;;;;;;14.30;91.10;;;;;;5045544;28;19919;-70
2022/09/25 03:05:34;;;;;;;;;;;14.30;91.10;;;;;;5044885;28;19917;-70
2022/09/25 03:10:45;;;;;;;;;;;14.30;91.10;;;;;;5045119;28;19939;-70
2022/09/25 03:13:16;;;;;;;;;;;14.30;91.20;;;;;;5044933;28;19913;-70
2022/09/25 03:15:44;;;;;;;;;;;14.30;91.20;;;;;;5044763;28;19923;-70
2022/09/25 03:18:10;;;;;;;;;;;14.30;91.20;;;;;;5044904;28;19923;-70
2022/09/25 03:20:36;;;;;;;;;;;14.30;91.20;;;;;;5026957;28;20340;-70
2022/09/25 03:23:02;;;;;;;;;;;14.30;91.20;;;;;;5045452;28;19909;-70
2022/09/25 03:25:27;;;;;;;;;;;14.30;91.20;;;;;;5044023;28;20019;-70
2022/09/25 03:27:52;;;;;;;;;;;14.30;91.20;;;;;;5045275;28;19915;-70
2022/09/25 03:30:18;;;;;;;;;;;14.30;91.20;;;;;;5044904;28;19942;-70
2022/09/25 03:32:44;;;;;;;;;;;14.30;91.30;;;;;;5044942;28;19917;-70
2022/09/25 03:35:10;;;;;;;;;;;14.30;91.30;;;;;;5044529;28;19920;-70
2022/09/25 03:37:36;;;;;;;;;;;14.30;91.30;;;;;;5044828;28;19952;-71
2022/09/25 03:40:01;;;;;;;;;;;14.20;91.20;;;;;;5044628;28;19909;-71
2022/09/25 03:42:27;;;;;;;;;;;14.20;91.20;;;;;;5044521;28;19923;-70
2022/09/25 03:44:52;;;;;;;;;;;14.20;91.20;;;;;;5044449;28;19913;-70
2022/09/25 03:47:18;;;;;;;;;;;14.20;91.20;;;;;;5044368;28;20006;-71
2022/09/25 03:49:43;;;;;;;;;;;14.20;91.30;;;;;;5044962;28;20316;-71
2022/09/25 03:52:11;;;;;;;;;;;14.20;91.30;;;;;;5044394;28;19979;-70
2022/09/25 03:54:37;;;;;;;;;;;14.10;91.20;;;;;;5044828;28;19909;-70
2022/09/25 03:57:02;;;;;;;;;;;14.10;91.20;;;;;;5044965;28;19912;-70
2022/09/25 03:59:28;;;;;;;;;;;14.20;91.20;;;;;;5044869;28;19969;-70
2022/09/25 04:01:54;;;;;;;;;;;14.20;91.30;;;;;;5044642;28;19994;-70
2022/09/25 04:04:19;;;;;;;;;;;14.20;91.30;;;;;;5044770;28;19917;-70
2022/09/25 04:06:45;;;;;;;;;;;14.20;91.30;;;;;;5044860;28;19913;-70
2022/09/25 04:09:10;;;;;;;;;;;14.10;91.30;;;;;;5044145;28;20050;-70
2022/09/25 04:11:37;;;;;;;;;;;14.10;91.20;;;;;;5044797;28;19967;-70
2022/09/25 04:14:03;;;;;;;;;;;14.10;91.30;;;;;;5044362;28;19920;-70
2022/09/25 04:16:30;;;;;;;;;;;14.10;91.30;;;;;;5044779;28;19909;-70
2022/09/25 04:18:55;;;;;;;;;;;14.10;91.30;;;;;;5045061;28;19992;-70
2022/09/25 04:21:21;;;;;;;;;;;14.10;91.20;;;;;;5047368;28;20011;-70
2022/09/25 04:24:47;;;;;;;;;;;14.10;91.30;;;;;;5048241;28;20411;-70
2022/09/25 04:26:32;;;;;;;;;;;14.10;91.30;;;;;;5045453;28;19917;-70
2022/09/25 04:29:02;;;;;;;;;;;14.00;91.20;;;;;;5048303;28;19912;-70
2022/09/25 04:31:28;;;;;;;;;;;14.00;91.30;;;;;;5045536;28;19920;-70
2022/09/25 04:33:53;;;;;;;;;;;14.00;91.30;;;;;;5048137;28;19912;-70
2022/09/25 04:36:19;;;;;;;;;;;14.00;91.30;;;;;;5048017;28;19912;-70
2022/09/25 04:38:45;;;;;;;;;;;14.00;91.30;;;;;;5052055;28;19975;-70
2022/09/25 04:41:15;;;;;;;;;;;14.00;91.30;;;;;;5046679;28;20312;-70
2022/09/25 04:43:41;;;;;;;;;;;14.00;91.30;;;;;;5047680;28;20712;-70
2022/09/25 04:46:08;;;;;;;;;;;14.00;91.20;;;;;;5029968;28;19919;-70
2022/09/25 04:48:34;;;;;;;;;;;14.00;91.30;;;;;;5047741;28;20617;-70
2022/09/25 04:51:00;;;;;;;;;;;13.90;91.30;;;;;;5047615;28;19948;-70
2022/09/25 04:53:26;;;;;;;;;;;13.90;91.30;;;;;;5029377;28;20093;-70
2022/09/25 04:55:53;;;;;;;;;;;13.90;91.30;;;;;;5028422;28;19912;-70
2022/09/25 04:58:19;;;;;;;;;;;13.90;91.40;;;;;;5047839;28;19913;-70
2022/09/25 05:00:44;;;;;;;;;;;13.90;91.40;;;;;;5046929;28;19922;-70
2022/09/25 05:03:10;;;;;;;;;;;13.90;91.30;;;;;;5047504;28;20029;-70
2022/09/25 05:05:35;;;;;;;;;;;13.80;91.40;;;;;;5047368;28;19951;-70
2022/09/25 05:08:02;;;;;;;;;;;13.80;91.40;;;;;;5047608;28;19909;-70
2022/09/25 05:10:31;;;;;;;;;;;13.80;91.30;;;;;;5047229;28;20569;-70
2022/09/25 05:12:58;;;;;;;;;;;13.80;91.30;;;;;;5046718;28;19909;-71
2022/09/25 05:15:24;;;;;;;;;;;13.80;91.40;;;;;;5047487;28;19920;-70
2022/09/25 05:17:52;;;;;;;;;;;13.70;91.60;;;;;;5046193;28;19925;-70
2022/09/25 05:20:17;;;;;;;;;;;13.70;91.40;;;;;;5047237;28;20288;-70
2022/09/25 05:22:43;;;;;;;;;;;13.70;91.40;;;;;;5046707;28;19924;-70
2022/09/25 05:25:08;;;;;;;;;;;13.70;91.40;;;;;;5045753;28;19939;-70
2022/09/25 05:27:34;;;;;;;;;;;13.70;91.40;;;;;;5047601;28;20009;-70
2022/09/25 05:30:00;;;;;;;;;;;13.70;91.40;;;;;;5047046;28;20400;-70
2022/09/25 05:32:25;;;;;;;;;;;13.70;91.40;;;;;;5046878;28;19912;-69
2022/09/25 05:34:51;;;;;;;;;;;13.60;91.30;;;;;;5047082;28;19921;-70
2022/09/25 05:37:16;;;;;;;;;;;13.60;91.40;;;;;;5047226;28;19925;-70
2022/09/25 05:39:42;;;;;;;;;;;13.60;91.40;;;;;;5046837;28;19916;-70
2022/09/25 05:42:07;;;;;;;;;;;13.60;91.40;;;;;;5028693;28;19924;-70
2022/09/25 05:44:33;;;;;;;;;;;13.60;91.50;;;;;;5028761;28;19909;-70
2022/09/25 05:46:58;;;;;;;;;;;13.50;91.50;;;;;;5046795;28;19921;-70
2022/09/25 05:49:24;;;;;;;;;;;13.60;91.50;;;;;;5046272;28;19913;-70
2022/09/25 05:51:49;;;;;;;;;;;13.50;91.40;;;;;;5046071;28;19925;-70
2022/09/25 05:54:15;;;;;;;;;;;13.50;91.50;;;;;;5045355;28;19914;-70
2022/09/25 05:56:40;;;;;;;;;;;13.50;91.40;;;;;;5046778;28;19958;-70
2022/09/25 05:59:06;;;;;;;;;;;13.50;91.40;;;;;;5046712;28;19912;-70
2022/09/25 06:01:31;;;;;;;;;;;13.50;91.40;;;;;;5046168;28;19970;-70
2022/09/25 06:03:57;;;;;;;;;;;13.50;91.40;;;;;;5046680;28;19960;-70
2022/09/25 06:06:23;;;;;;;;;;;13.40;91.40;;;;;;5046006;28;19913;-70
2022/09/25 06:08:48;;;;;;;;;;;13.50;91.50;;;;;;5043154;28;20004;-70
2022/09/25 06:11:14;;;;;;;;;;;13.40;91.50;;;;;;5046158;28;19913;-70
2022/09/25 06:13:44;;;;;;;;;;;13.40;91.40;;;;;;5046292;28;19912;-70
2022/09/25 06:16:17;;;;;;;;;;;13.40;91.40;;;;;;5046303;28;19920;-70
2022/09/25 06:18:43;;;;;;;;;;;13.40;91.40;;;;;;5043321;28;19912;-70
2022/09/25 06:21:08;;;;;;;;;;;13.40;91.60;;;;;;5042211;28;19916;-70
2022/09/25 06:23:34;;;;;;;;;;;13.40;91.60;;;;;;5045963;28;19948;-70
2022/09/25 06:26:03;;;;;;;;;;;13.40;91.40;;;;;;5044503;28;19913;-71
2022/09/25 06:28:29;;;;;;;;;;;13.30;91.40;;;;;;5046167;28;19986;-70
2022/09/25 06:30:58;;;;;;;;;;;13.30;91.40;;;;;;5047554;28;19978;-71
2022/09/25 06:33:23;;;;;;;;;;;13.30;91.40;;;;;;5045904;28;20628;-70
2022/09/25 06:35:49;;;;;;;;;;;13.30;91.50;;;;;;5045163;28;19916;-70
2022/09/25 06:38:15;;;;;;;;;;;13.30;91.50;;;;;;5045412;28;19916;-70
2022/09/25 06:40:41;;;;;;;;;;;13.30;91.40;;;;;;5045193;28;19913;-70
2022/09/25 06:43:10;;;;;;;;;;;13.30;91.50;;;;;;5045632;28;19920;-70
2022/09/25 06:45:37;;;;;;;;;;;13.30;91.40;;;;;;5045755;28;19921;-70
2022/09/25 06:48:03;;;;;;;;;;;13.30;91.50;;;;;;5045520;28;19916;-71
2022/09/25 06:50:35;;;;;;;;;;;13.30;91.50;;;;;;5045623;28;20348;-70
2022/09/25 06:53:00;;;;;;;;;;;13.30;91.40;;;;;;5045814;28;19913;-71
2022/09/25 06:55:26;;;;;;;;;;;13.30;91.50;;;;;;5044444;28;20266;-70
2022/09/25 06:57:52;;;;;;;;;;;13.30;91.40;;;;;;5045224;28;20399;-70
2022/09/25 07:00:17;;;;;;;;;;;13.30;91.40;;;;;;5045462;28;19913;-71
2022/09/25 07:05:27;;;;;;;;;;;13.30;91.40;;;;;;5044661;28;20002;-71
2022/09/25 07:07:53;;;;;;;;;;;13.30;91.40;;;;;;5044744;28;20389;-71
2022/09/25 07:10:18;;;;;;;;;;;13.30;91.40;;;;;;5045165;28;19912;-70
2022/09/25 07:12:44;;;;;;;;;;;13.30;91.40;;;;;;5044747;28;20659;-70
2022/09/25 07:15:10;;;;;;;;;;;13.30;91.30;;;;;;5045192;28;19956;-70
2022/09/25 07:17:36;;;;;;;;;;;13.30;91.30;;;;;;5044990;28;20556;-70
2022/09/25 07:20:02;;;;;;;;;;;13.30;91.30;;;;;;5045185;28;19923;-70
2022/09/25 07:22:28;;;;;;;;;;;13.30;91.30;;;;;;5045352;28;19917;-70
2022/09/25 07:24:53;;;;;;;;;;;13.30;91.30;;;;;;5026116;28;19913;-70
2022/09/25 07:27:19;;;;;;;;;;;13.30;91.30;;;;;;5045470;28;19913;-70
2022/09/25 07:29:44;;;;;;;;;;;13.30;91.20;;;;;;5045468;28;19913;-71
2022/09/25 07:32:10;;;;;;;;;;;13.30;91.20;;;;;;5044676;28;20015;-71
2022/09/25 07:34:36;;;;;;;;;;;13.30;91.20;;;;;;5045182;28;20332;-70
2022/09/25 07:37:02;;;;;;;;;;;13.30;91.20;;;;;;5041578;28;19917;-70
2022/09/25 07:39:27;;;;;;;;;;;13.30;91.10;;;;;;5043098;28;19916;-70
2022/09/25 07:41:53;;;;;;;;;;;13.30;91.10;;;;;;5044491;28;20377;-71
2022/09/25 07:44:19;;;;;;;;;;;13.30;91.20;;;;;;5045389;28;20047;-70
2022/09/25 07:46:44;;;;;;;;;;;13.30;91.10;;;;;;5045532;28;19955;-71
2022/09/25 07:49:10;;;;;;;;;;;13.40;91.20;;;;;;5045265;28;19990;-70
2022/09/25 07:51:36;;;;;;;;;;;13.40;91.20;;;;;;5041931;28;20334;-70
2022/09/25 07:54:01;;;;;;;;;;;13.40;91.10;;;;;;5043803;28;19924;-70
2022/09/25 07:56:27;;;;;;;;;;;13.40;91.10;;;;;;5047914;28;20341;-71
2022/09/25 07:58:52;;;;;;;;;;;13.40;91.40;;;;;;5048813;28;20015;-70
2022/09/25 08:01:18;;;;;;;;;;;13.40;91.00;;;;;;5048843;28;19939;-70
2022/09/25 08:03:44;;;;;;;;;;;13.50;91.00;;;;;;5049022;28;19912;-70
2022/09/25 08:06:11;;;;;;;;;;;13.50;90.90;;;;;;5048636;28;19955;-70
2022/09/25 08:08:37;;;;;;;;;;;13.50;91.00;;;;;;5049072;28;19988;-70
2022/09/25 08:11:07;;;;;;;;;;;13.50;90.90;;;;;;5048399;28;20020;-70
2022/09/25 08:13:33;;;;;;;;;;;13.60;90.90;;;;;;5048891;28;20019;-70
2022/09/25 08:16:02;;;;;;;;;;;13.60;90.90;;;;;;5048572;28;19996;-70
2022/09/25 08:18:28;;;;;;;;;;;13.60;90.80;;;;;;5048793;28;19913;-71
2022/09/25 08:20:53;;;;;;;;;;;13.60;90.80;;;;;;5030208;28;19921;-70
2022/09/25 08:23:19;;;;;;;;;;;13.70;90.80;;;;;;5048320;28;19917;-70
2022/09/25 08:25:50;;;;;;;;;;;13.70;90.80;;;;;;5047093;28;19912;-70
2022/09/25 08:28:17;;;;;;;;;;;13.70;90.70;;;;;;5048103;28;20473;-70
2022/09/25 08:30:42;;;;;;;;;;;13.70;90.70;;;;;;5048204;28;19939;-70
2022/09/25 08:33:11;;;;;;;;;;;13.70;90.70;;;;;;5030214;28;19913;-70
2022/09/25 08:35:37;;;;;;;;;;;13.80;90.70;;;;;;5048668;28;19912;-70
2022/09/25 08:38:03;;;;;;;;;;;13.80;90.70;;;;;;5048407;28;20370;-70
2022/09/25 08:40:30;;;;;;;;;;;13.80;90.60;;;;;;5044574;28;20675;-70
2022/09/25 08:42:57;;;;;;;;;;;13.80;90.60;;;;;;5050353;28;19916;-70
2022/09/25 08:50:52;;;;;;;;;;;13.90;90.50;;;;;;5047675;28;20399;-70
2022/09/25 08:53:22;;;;;;;;;;;13.90;90.50;;;;;;5048075;28;19913;-70
2022/09/25 08:58:35;;;;;;;;;;;13.90;90.50;;;;;;5048341;28;19998;-70
2022/09/25 09:01:04;;;;;;;;;;;13.90;90.50;;;;;;5047655;28;20039;-70
2022/09/25 09:03:30;;;;;;;;;;;13.90;90.40;;;;;;5044292;28;20038;-70
2022/09/25 09:05:59;;;;;;;;;;;13.90;90.40;;;;;;5047024;28;20327;-70
2022/09/25 09:08:27;;;;;;;;;;;14.00;90.40;;;;;;5047702;28;19955;-70
2022/09/25 09:11:05;;;;;;;;;;;14.00;90.40;;;;;;5045358;28;20309;-70
2022/09/25 09:13:37;;;;;;;;;;;13.90;90.40;;;;;;5046600;28;19963;-70
2022/09/25 09:16:02;;;;;;;;;;;13.90;90.40;;;;;;5047654;28;19913;-70
2022/09/25 09:18:29;;;;;;;;;;;14.00;90.40;;;;;;5047353;28;19909;-70
2022/09/25 09:20:56;;;;;;;;;;;14.00;90.30;;;;;;5047063;28;19960;-70
2022/09/25 09:23:23;;;;;;;;;;;14.10;90.30;;;;;;5047668;28;20507;-70
2022/09/25 09:25:51;;;;;;;;;;;14.20;90.10;;;;;;5047258;28;19913;-70
2022/09/25 09:28:16;;;;;;;;;;;14.20;90.00;;;;;;5047633;28;20365;-70
2022/09/25 09:31:02;;;;;;;;;;;14.30;89.90;;;;;;5047319;28;19913;-70
2022/09/25 09:33:52;;;;;;;;;;;14.30;89.70;;;;;;5046645;28;19913;-70
2022/09/25 09:36:36;;;;;;;;;;;14.30;89.60;;;;;;5047023;28;19927;-70
2022/09/25 09:39:22;;;;;;;;;;;14.30;89.60;;;;;;5047293;28;19973;-70
2022/09/25 09:42:00;;;;;;;;;;;14.30;89.70;;;;;;5046220;28;20782;-70
2022/09/25 09:44:29;;;;;;;;;;;14.30;89.80;;;;;;5045921;28;19912;-70
2022/09/25 09:46:57;;;;;;;;;;;14.30;89.90;;;;;;5047098;28;19909;-70
2022/09/25 09:49:23;;;;;;;;;;;14.30;90.00;;;;;;5047235;28;20015;-70
2022/09/25 09:51:54;;;;;;;;;;;14.30;89.80;;;;;;5046712;28;20024;-70
2022/09/25 09:54:41;;;;;;;;;;;14.40;89.60;;;;;;5045132;28;19921;-70
2022/09/25 09:57:14;;;;;;;;;;;14.50;89.30;;;;;;5046862;28;19909;-70
2022/09/25 09:59:45;;;;;;;;;;;14.40;89.30;;;;;;5046522;28;19913;-70
2022/09/25 10:02:32;;;;;;;;;;;14.50;89.20;;;;;;5046464;28;19917;-70
2022/09/25 10:05:00;;;;;;;;;;;14.60;88.90;;;;;;5046694;28;19912;-70
2022/09/25 10:07:27;;;;;;;;;;;14.60;88.60;;;;;;5046474;28;19971;-70
2022/09/25 10:09:53;;;;;;;;;;;14.70;88.30;;;;;;5046073;28;19952;-70
2022/09/25 10:12:24;;;;;;;;;;;14.80;88.00;;;;;;5028426;28;20633;-70
2022/09/25 10:14:50;;;;;;;;;;;14.80;87.60;;;;;;5046309;28;19917;-69
2022/09/25 10:17:16;;;;;;;;;;;14.90;87.50;;;;;;5045961;28;19909;-70
2022/09/25 10:19:49;;;;;;;;;;;15.00;87.20;;;;;;5046394;28;19912;-70
2022/09/25 10:22:16;;;;;;;;;;;15.10;87.10;;;;;;5046188;28;19924;-70
2022/09/25 10:24:44;;;;;;;;;;;15.00;86.50;;;;;;5046283;28;20558;-70
2022/09/25 10:27:18;;;;;;;;;;;15.00;86.80;;;;;;5046160;28;19921;-70
2022/09/25 10:29:44;;;;;;;;;;;15.00;86.90;;;;;;5046497;28;20477;-70
2022/09/25 10:32:10;;;;;;;;;;;15.10;86.70;;;;;;5045768;28;19917;-70
2022/09/25 10:34:37;;;;;;;;;;;15.10;86.70;;;;;;5046348;28;19951;-70
2022/09/25 10:37:13;;;;;;;;;;;15.00;87.10;;;;;;5046642;28;19959;-70
2022/09/25 10:39:39;;;;;;;;;;;15.00;87.30;;;;;;5049539;28;19958;-70
2022/09/25 10:42:07;;;;;;;;;;;15.00;87.40;;;;;;5045659;28;19928;-70
2022/09/25 10:44:34;;;;;;;;;;;15.00;87.20;;;;;;5045262;28;19919;-70
2022/09/25 10:50:11;;;;;;;;;;;15.10;87.30;;;;;;5045524;28;20617;-70
2022/09/25 10:53:04;;;;;;;;;;;15.20;87.10;;;;;;5025526;28;20573;-70
2022/09/25 10:55:35;;;;;;;;;;;15.30;86.80;;;;;;5042068;28;19939;-70
2022/09/25 10:58:03;;;;;;;;;;;15.40;86.50;;;;;;5028028;28;20389;-70
2022/09/25 11:00:29;;;;;;;;;;;15.30;86.60;;;;;;5045134;28;19913;-70
2022/09/25 11:02:57;;;;;;;;;;;15.30;86.80;;;;;;5045389;28;19974;-70
2022/09/25 11:05:27;;;;;;;;;;;15.20;87.00;;;;;;5045559;28;20388;-70
2022/09/25 11:07:54;;;;;;;;;;;15.40;86.90;;;;;;5045526;28;20389;-70
2022/09/25 11:10:24;;;;;;;;;;;15.50;86.40;;;;;;5046039;28;19955;-70
2022/09/25 11:12:50;;;;;;;;;;;15.70;86.00;;;;;;5045404;28;20698;-70
2022/09/25 11:15:20;;;;;;;;;;;15.80;85.40;;;;;;5045410;28;20516;-70
2022/09/25 11:17:49;;;;;;;;;;;16.00;85.00;;;;;;5044889;28;20292;-70
2022/09/25 11:20:18;;;;;;;;;;;16.00;84.40;;;;;;5045603;28;20329;-70
2022/09/25 11:23:07;;;;;;;;;;;16.10;84.60;;;;;;5044962;28;19992;-70
2022/09/25 11:25:35;;;;;;;;;;;16.10;84.70;;;;;;5013565;28;19913;-70
2022/09/25 11:28:05;;;;;;;;;;;16.00;84.90;;;;;;5045514;28;20680;-70
2022/09/25 11:30:38;;;;;;;;;;;15.90;85.40;;;;;;5049077;28;20556;-70
2022/09/25 11:33:16;;;;;;;;;;;16.00;85.60;;;;;;5049421;28;19913;-70
2022/09/25 11:35:47;;;;;;;;;;;16.10;85.60;;;;;;5049357;28;19924;-70
2022/09/25 11:41:11;;;;;;;;;;;16.20;84.80;;;;;;5049663;28;19927;-70
2022/09/25 11:41:19;;;;;;;;;;;16.40;84.60;;;;;;5049114;28;19955;-70
2022/09/25 11:43:58;;;;;;;;;;;16.30;84.50;;;;;;5049401;28;19959;-70
2022/09/25 11:46:23;;;;;;;;;;;16.20;84.40;;;;;;5048786;28;20448;-70
2022/09/25 11:48:56;;;;;;;;;;;16.20;85.00;;;;;;5049424;28;19952;-70
2022/09/25 11:51:29;;;;;;;;;;;16.20;85.40;;;;;;5048853;28;19913;-70
2022/09/25 11:53:57;;;;;;;;;;;16.30;85.30;;;;;;5048615;28;19985;-70
2022/09/25 11:56:23;;;;;;;;;;;16.40;84.90;;;;;;5047209;28;19982;-70
2022/09/25 11:59:07;;;;;;;;;;;16.50;84.20;;;;;;5048406;28;20373;-70
2022/09/25 12:01:39;;;;;;;;;;;16.60;83.80;;;;;;5048262;28;19917;-70
2022/09/25 12:04:24;;;;;;;;;;;16.70;83.20;;;;;;5048854;28;19924;-69
2022/09/25 12:06:53;;;;;;;;;;;16.70;83.50;;;;;;5048952;28;20063;-69
2022/09/25 12:09:25;;;;;;;;;;;16.60;84.10;;;;;;5044877;28;20637;-70
2022/09/25 12:12:04;;;;;;;;;;;16.50;84.30;;;;;;5048630;28;19917;-70
2022/09/25 12:14:33;;;;;;;;;;;16.50;84.60;;;;;;5048610;28;19996;-70
2022/09/25 12:17:13;;;;;;;;;;;16.60;84.50;;;;;;5048644;28;19909;-70
2022/09/25 12:19:54;;;;;;;;;;;16.70;84.30;;;;;;5048524;28;20662;-70
2022/09/25 12:22:26;;;;;;;;;;;16.80;84.00;;;;;;5047893;28;19928;-69
2022/09/25 12:24:51;;;;;;;;;;;16.90;83.50;;;;;;5046753;28;19912;-70
2022/09/25 12:27:26;;;;;;;;;;;17.00;83.00;;;;;;5048504;28;19923;-70
2022/09/25 12:29:54;;;;;;;;;;;17.00;83.50;;;;;;5048416;28;20998;-70
2022/09/25 12:32:25;;;;;;;;;;;16.90;83.30;;;;;;5044466;28;19975;-70
2022/09/25 12:34:54;;;;;;;;;;;16.90;83.70;;;;;;5045203;28;20575;-70
2022/09/25 12:37:33;;;;;;;;;;;16.80;83.90;;;;;;5048023;28;19912;-70
2022/09/25 12:40:01;;;;;;;;;;;16.80;84.00;;;;;;5048225;28;19913;-70
2022/09/25 12:42:47;;;;;;;;;;;16.80;84.10;;;;;;5047092;28;20745;-70
2022/09/25 12:45:23;;;;;;;;;;;16.70;84.30;;;;;;5034766;28;20320;-70
2022/09/25 12:48:01;;;;;;;;;;;16.70;84.50;;;;;;5049004;28;19943;-70
2022/09/25 12:50:30;;;;;;;;;;;16.80;84.50;;;;;;5044712;28;20003;-70
2022/09/25 12:53:00;;;;;;;;;;;16.90;84.10;;;;;;5047801;28;20277;-70
2022/09/25 12:55:30;;;;;;;;;;;16.90;83.80;;;;;;5045764;28;20687;-69
2022/09/25 12:57:59;;;;;;;;;;;17.00;83.60;;;;;;5047807;28;19923;-70
2022/09/25 13:00:27;;;;;;;;;;;17.00;83.90;;;;;;5047794;28;19913;-70
2022/09/25 13:03:10;;;;;;;;;;;17.10;83.90;;;;;;5047576;28;20009;-70
2022/09/25 13:05:44;;;;;;;;;;;17.10;83.50;;;;;;5047523;28;20000;-70
2022/09/25 13:08:14;;;;;;;;;;;17.20;83.60;;;;;;5047881;28;19954;-70
2022/09/25 13:10:43;;;;;;;;;;;17.20;83.40;;;;;;5047537;28;20697;-70
2022/09/25 13:13:10;;;;;;;;;;;17.30;83.20;;;;;;5047813;28;19912;-70
2022/09/25 13:15:38;;;;;;;;;;;17.40;83.10;;;;;;5047121;28;19916;-70
2022/09/25 13:18:04;;;;;;;;;;;17.40;83.30;;;;;;5047647;28;20524;-70
2022/09/25 13:20:30;;;;;;;;;;;17.40;82.90;;;;;;5047467;28;19913;-68
2022/09/25 13:22:57;;;;;;;;;;;17.50;82.70;;;;;;5047637;28;19928;-70
2022/09/25 13:25:24;;;;;;;;;;;17.50;82.80;;;;;;5047655;28;19913;-70
2022/09/25 13:27:53;;;;;;;;;;;17.60;83.40;;;;;;5047376;28;19917;-70
2022/09/25 13:30:19;;;;;;;;;;;17.60;83.40;;;;;;5047063;28;19913;-69
2022/09/25 13:32:49;;;;;;;;;;;17.60;83.20;;;;;;5046764;28;19917;-70
2022/09/25 13:35:16;;;;;;;;;;;17.70;81.80;;;;;;5047302;28;20358;-70
2022/09/25 13:37:41;;;;;;;;;;;17.70;82.20;;;;;;5028154;28;19931;-70
2022/09/25 13:43:37;;;;;;;;;;;17.80;82.10;;;;;;5043907;28;20332;-70
2022/09/25 13:46:22;;;;;;;;;;;17.80;82.90;;;;;;5024196;28;19944;-69
2022/09/25 13:48:51;;;;;;;;;;;17.90;83.30;;;;;;5046407;28;19917;-70
2022/09/25 13:51:19;;;;;;;;;;;17.90;81.30;;;;;;5046529;28;19917;-70
2022/09/25 13:53:51;;;;;;;;;;;17.90;82.00;;;;;;5046021;28;19920;-70
2022/09/25 13:56:21;;;;;;;;;;;17.90;83.40;;;;;;5044224;28;20043;-70
2022/09/25 13:59:06;;;;;;;;;;;17.90;83.00;;;;;;5046724;28;20020;-70
2022/09/25 14:01:46;;;;;;;;;;;17.90;83.20;;;;;;5046178;28;20373;-70
2022/09/25 14:04:14;;;;;;;;;;;18.00;83.10;;;;;;5028508;28;19913;-70
2022/09/25 14:06:44;;;;;;;;;;;18.00;82.70;;;;;;5045296;28;20425;-70
2022/09/25 14:09:12;;;;;;;;;;;18.00;82.70;;;;;;5046903;28;19917;-70
2022/09/25 14:11:39;;;;;;;;;;;18.00;82.20;;;;;;5046073;28;19912;-69
2022/09/25 14:14:07;;;;;;;;;;;18.00;82.50;;;;;;5046079;28;19917;-69
2022/09/25 14:16:32;;;;;;;;;;;18.10;83.00;;;;;;5046112;28;19913;-70
2022/09/25 14:18:59;;;;;;;;;;;18.10;82.60;;;;;;5046671;28;19913;-70
2022/09/25 14:21:27;;;;;;;;;;;18.10;82.40;;;;;;5045947;28;19971;-70
2022/09/25 14:23:53;;;;;;;;;;;18.10;82.10;;;;;;5046304;28;19920;-70
2022/09/25 14:26:26;;;;;;;;;;;18.10;81.40;;;;;;5044366;28;19920;-70
2022/09/25 14:28:53;;;;;;;;;;;18.10;82.20;;;;;;5045808;28;20407;-70
2022/09/25 14:31:31;;;;;;;;;;;18.00;82.40;;;;;;5044674;28;20376;-70
2022/09/25 14:34:15;;;;;;;;;;;18.00;83.50;;;;;;5045931;28;20064;-70
2022/09/25 14:36:50;;;;;;;;;;;18.00;83.60;;;;;;5044934;28;20003;-70
2022/09/25 14:39:25;;;;;;;;;;;18.00;83.10;;;;;;5046044;28;20007;-70
2022/09/25 14:41:57;;;;;;;;;;;18.10;82.70;;;;;;5047268;28;19929;-70
2022/09/25 14:44:38;;;;;;;;;;;18.00;82.20;;;;;;5045504;28;19920;-70
2022/09/25 14:47:04;;;;;;;;;;;18.10;82.00;;;;;;5045519;28;19958;-70
2022/09/25 14:49:32;;;;;;;;;;;18.10;80.00;;;;;;5045720;28;19916;-70